Time;durP1;ratioP1;P1;durP2;ratioP2;P2;SDS_P1;SDS_P2;PMS_P1;PMS_P2;Temp;Humidity;BMP_temperature;BMP_pressure;BME280_temperature;BME280_humidity;BME280_pressure;Samples;Min_cycle;Max_cycle;Signal;HPM_P1;HPM_P2
2022/11/12 00:00:40;;;;;;;0.62;0.62;;;;;;;;;;1816075;77;26264;-54
2022/11/12 00:03:07;;;;;;;0.40;0.40;;;;;;;;;;1795612;77;26358;-50
2022/11/12 00:05:34;;;;;;;0.35;0.35;;;;;;;;;;1841922;76;26304;-52
2022/11/12 00:08:02;;;;;;;0.40;0.40;;;;;;;;;;1836563;76;26372;-54
2022/11/12 00:10:30;;;;;;;0.30;0.30;;;;;;;;;;1802993;77;26259;-52
2022/11/12 00:12:58;;;;;;;0.45;0.40;;;;;;;;;;1808154;78;26275;-53
2022/11/12 00:15:26;;;;;;;0.47;0.47;;;;;;;;;;1811623;78;27690;-53
2022/11/12 00:17:53;;;;;;;0.40;0.40;;;;;;;;;;1837597;78;26292;-55
2022/11/12 00:20:21;;;;;;;0.37;0.37;;;;;;;;;;1844128;78;26748;-57
2022/11/12 00:22:48;;;;;;;0.45;0.45;;;;;;;;;;1844141;78;26190;-55
2022/11/12 00:25:15;;;;;;;0.40;0.40;;;;;;;;;;1846338;78;26276;-56
2022/11/12 00:27:42;;;;;;;0.40;0.40;;;;;;;;;;1845152;77;26262;-51
2022/11/12 00:30:10;;;;;;;0.57;0.57;;;;;;;;;;1846162;78;26237;-56
2022/11/12 00:32:38;;;;;;;0.47;0.47;;;;;;;;;;1843462;77;26216;-49
2022/11/12 00:35:06;;;;;;;0.50;0.30;;;;;;;;;;1827048;78;26334;-52
2022/11/12 00:37:33;;;;;;;0.40;0.40;;;;;;;;;;1830361;78;26216;-54
2022/11/12 00:40:00;;;;;;;0.40;0.40;;;;;;;;;;1831008;78;26264;-57
2022/11/12 00:42:27;;;;;;;0.50;0.50;;;;;;;;;;1832991;78;26256;-54
2022/11/12 00:44:55;;;;;;;0.35;0.35;;;;;;;;;;1839337;78;26260;-51
2022/11/12 00:47:22;;;;;;;0.40;0.40;;;;;;;;;;1839834;78;26839;-55
2022/11/12 00:49:49;;;;;;;0.33;0.33;;;;;;;;;;1844906;77;26804;-51
2022/11/12 00:52:16;;;;;;;0.30;0.30;;;;;;;;;;1845184;77;27129;-54
2022/11/12 00:54:44;;;;;;;0.53;0.40;;;;;;;;;;1839049;78;26677;-54
2022/11/12 00:57:11;;;;;;;0.42;0.42;;;;;;;;;;1833389;78;26357;-53
2022/11/12 00:59:38;;;;;;;0.47;0.47;;;;;;;;;;1835896;77;26202;-49
2022/11/12 01:02:06;;;;;;;0.50;0.40;;;;;;;;;;1833305;77;26267;-53
2022/11/12 01:04:33;;;;;;;1.10;0.50;;;;;;;;;;1839022;78;27349;-52
2022/11/12 01:07:00;;;;;;;0.40;0.40;;;;;;;;;;1839735;78;26283;-52
2022/11/12 01:09:28;;;;;;;0.40;0.40;;;;;;;;;;1843792;78;26272;-56
2022/11/12 01:11:56;;;;;;;0.50;0.50;;;;;;;;;;1845253;78;26299;-58
2022/11/12 01:14:23;;;;;;;0.40;0.40;;;;;;;;;;1838764;78;26733;-54
2022/11/12 01:16:50;;;;;;;0.35;0.35;;;;;;;;;;1845120;78;26735;-55
2022/11/12 01:19:17;;;;;;;0.40;0.40;;;;;;;;;;1841289;78;26258;-52
2022/11/12 01:21:45;;;;;;;0.40;0.40;;;;;;;;;;1834033;77;26272;-53
2022/11/12 01:24:12;;;;;;;0.40;0.40;;;;;;;;;;1845218;78;26534;-54
2022/11/12 01:26:39;;;;;;;0.37;0.37;;;;;;;;;;1839162;78;26252;-52
2022/11/12 01:29:07;;;;;;;0.35;0.35;;;;;;;;;;1845068;78;26275;-55
2022/11/12 01:31:35;;;;;;;0.40;0.40;;;;;;;;;;1834789;77;26732;-56
2022/11/12 01:34:04;;;;;;;0.30;0.30;;;;;;;;;;1841580;78;26268;-57
2022/11/12 01:36:36;;;;;;;0.33;0.33;;;;;;;;;;1845570;78;26327;-52
2022/11/12 01:39:04;;;;;;;0.20;0.20;;;;;;;;;;1844693;78;26330;-53
2022/11/12 01:41:32;;;;;;;0.20;0.20;;;;;;;;;;1838414;78;26732;-53
2022/11/12 01:44:13;;;;;;;0.30;0.30;;;;;;;;;;1845139;78;26331;-56
2022/11/12 01:46:55;;;;;;;0.42;0.42;;;;;;;;;;1845532;78;26284;-52
2022/11/12 01:49:30;;;;;;;0.40;0.40;;;;;;;;;;1840372;78;26288;-52
2022/11/12 01:51:59;;;;;;;0.30;0.30;;;;;;;;;;1830515;77;26355;-49
2022/11/12 01:54:27;;;;;;;0.40;0.40;;;;;;;;;;1826723;78;26217;-52
2022/11/12 01:56:55;;;;;;;0.30;0.30;;;;;;;;;;1829786;78;26314;-52
2022/11/12 01:59:24;;;;;;;0.47;0.47;;;;;;;;;;1843784;78;26257;-54
2022/11/12 02:01:51;;;;;;;0.42;0.42;;;;;;;;;;1829719;78;26337;-50
2022/11/12 02:04:20;;;;;;;0.33;0.33;;;;;;;;;;1831133;78;26933;-53
2022/11/12 02:06:48;;;;;;;0.40;0.40;;;;;;;;;;1834288;78;26263;-54
2022/11/12 02:09:15;;;;;;;0.30;0.30;;;;;;;;;;1828079;76;26757;-50
2022/11/12 02:11:43;;;;;;;0.30;0.30;;;;;;;;;;1841056;77;26246;-55
2022/11/12 02:14:10;;;;;;;0.35;0.35;;;;;;;;;;1834782;78;26333;-53
2022/11/12 02:16:41;;;;;;;0.33;0.33;;;;;;;;;;1836625;78;26355;-54
2022/11/12 02:19:10;;;;;;;0.40;0.40;;;;;;;;;;1819166;78;26804;-51
2022/11/12 02:21:38;;;;;;;0.30;0.30;;;;;;;;;;1843256;78;26242;-55
2022/11/12 02:24:12;;;;;;;0.42;0.42;;;;;;;;;;1841926;78;26331;-51
2022/11/12 02:26:44;;;;;;;3.00;0.55;;;;;;;;;;1833318;78;26337;-52
2022/11/12 02:29:11;;;;;;;1.12;0.30;;;;;;;;;;1838530;78;26273;-54
2022/11/12 02:31:39;;;;;;;0.55;0.37;;;;;;;;;;1841937;78;26197;-55
2022/11/12 02:34:06;;;;;;;0.30;0.30;;;;;;;;;;1822427;78;26261;-54
2022/11/12 02:36:33;;;;;;;0.40;0.40;;;;;;;;;;1838099;78;26267;-53
2022/11/12 02:39:01;;;;;;;0.75;0.50;;;;;;;;;;1826900;78;26242;-49
2022/11/12 02:41:28;;;;;;;0.30;0.30;;;;;;;;;;1837243;78;26700;-52
2022/11/12 02:43:55;;;;;;;0.20;0.20;;;;;;;;;;1815662;78;26266;-52
2022/11/12 02:46:23;;;;;;;0.35;0.35;;;;;;;;;;1837782;78;26272;-51
2022/11/12 02:48:50;;;;;;;0.30;0.28;;;;;;;;;;1836936;78;26268;-51
2022/11/12 02:51:17;;;;;;;0.50;0.50;;;;;;;;;;1842756;78;26256;-54
2022/11/12 02:53:45;;;;;;;0.30;0.30;;;;;;;;;;1836519;77;26383;-55
2022/11/12 02:56:14;;;;;;;1.55;0.45;;;;;;;;;;1829620;78;26268;-54
2022/11/12 02:58:42;;;;;;;0.40;0.40;;;;;;;;;;1828831;78;26725;-53
2022/11/12 03:01:09;;;;;;;0.35;0.35;;;;;;;;;;1812889;78;26324;-55
2022/11/12 03:03:36;;;;;;;0.37;0.37;;;;;;;;;;1818169;78;26742;-51
2022/11/12 03:06:04;;;;;;;1.22;0.40;;;;;;;;;;1824637;78;26553;-47
2022/11/12 03:08:31;;;;;;;0.40;0.40;;;;;;;;;;1803486;78;26348;-53
2022/11/12 03:10:58;;;;;;;0.20;0.20;;;;;;;;;;1821830;78;26739;-51
2022/11/12 03:13:26;;;;;;;0.47;0.47;;;;;;;;;;1824577;78;26364;-53
2022/11/12 03:15:54;;;;;;;0.40;0.40;;;;;;;;;;1820379;78;26259;-51
2022/11/12 03:18:22;;;;;;;0.57;0.57;;;;;;;;;;1815580;78;26283;-53
2022/11/12 03:20:51;;;;;;;0.37;0.37;;;;;;;;;;1814938;78;26352;-56
2022/11/12 03:23:18;;;;;;;0.95;0.40;;;;;;;;;;1827079;78;26754;-50
2022/11/12 03:25:45;;;;;;;0.50;0.50;;;;;;;;;;1830999;78;26256;-49
2022/11/12 03:28:14;;;;;;;0.50;0.50;;;;;;;;;;1829522;78;26293;-52
2022/11/12 03:30:42;;;;;;;0.35;0.35;;;;;;;;;;1830791;78;26733;-53
2022/11/12 03:33:11;;;;;;;0.40;0.40;;;;;;;;;;1827832;78;26343;-53
2022/11/12 03:35:38;;;;;;;0.30;0.30;;;;;;;;;;1830339;78;26722;-57
2022/11/12 03:38:06;;;;;;;0.40;0.40;;;;;;;;;;1830092;78;26245;-53
2022/11/12 03:40:34;;;;;;;0.80;0.37;;;;;;;;;;1830724;78;26780;-52
2022/11/12 03:43:01;;;;;;;0.40;0.40;;;;;;;;;;1816992;78;26257;-54
2022/11/12 03:45:28;;;;;;;0.50;0.50;;;;;;;;;;1830711;78;26310;-51
2022/11/12 03:47:56;;;;;;;0.37;0.37;;;;;;;;;;1829907;78;26246;-54
2022/11/12 03:50:25;;;;;;;0.50;0.50;;;;;;;;;;1828334;78;26280;-54
2022/11/12 03:52:54;;;;;;;0.30;0.30;;;;;;;;;;1830191;78;26710;-54
2022/11/12 03:55:22;;;;;;;0.35;0.35;;;;;;;;;;1848580;77;26231;-55
2022/11/12 03:57:50;;;;;;;0.50;0.50;;;;;;;;;;1849450;76;26336;-53
2022/11/12 04:00:19;;;;;;;0.42;0.42;;;;;;;;;;1846079;76;27217;-50
2022/11/12 04:02:46;;;;;;;0.40;0.40;;;;;;;;;;1815969;77;26725;-58
2022/11/12 04:10:46;;;;;;;0.47;0.40;;;;;;;;;;1863122;75;26306;-50
2022/11/12 04:13:29;;;;;;;0.37;0.37;;;;;;;;;;1883224;75;27198;-56
2022/11/12 04:27:03;;;;;;;0.40;0.40;;;;;;;;;;1879217;75;26266;-54
2022/11/12 04:32:16;;;;;;;0.40;0.40;;;;;;;;;;1856888;75;26401;-53
2022/11/12 04:34:43;;;;;;;0.50;0.50;;;;;;;;;;1878501;75;26268;-52
2022/11/12 04:37:10;;;;;;;0.50;0.50;;;;;;;;;;1880971;75;26306;-51
2022/11/12 04:39:37;;;;;;;0.42;0.28;;;;;;;;;;1853550;75;26243;-50
2022/11/12 04:47:26;;;;;;;0.40;0.40;;;;;;;;;;1880023;75;26313;-53
2022/11/12 04:49:53;;;;;;;0.50;0.50;;;;;;;;;;1880222;75;26820;-53
2022/11/12 04:52:20;;;;;;;0.30;0.30;;;;;;;;;;1881119;75;27307;-53
2022/11/12 04:54:47;;;;;;;0.33;0.33;;;;;;;;;;1879051;76;26760;-52
2022/11/12 04:57:15;;;;;;;0.30;0.30;;;;;;;;;;1873355;75;26264;-52
2022/11/12 04:59:42;;;;;;;0.45;0.45;;;;;;;;;;1881972;75;26356;-51
2022/11/12 05:02:09;;;;;;;0.40;0.40;;;;;;;;;;1872266;75;26263;-53
2022/11/12 05:04:37;;;;;;;0.40;0.40;;;;;;;;;;1866212;75;26834;-50
2022/11/12 05:07:04;;;;;;;0.40;0.40;;;;;;;;;;1864574;75;26205;-50
2022/11/12 05:09:31;;;;;;;0.50;0.50;;;;;;;;;;1874660;75;26226;-52
2022/11/12 05:11:58;;;;;;;0.50;0.47;;;;;;;;;;1875882;75;26256;-52
2022/11/12 05:14:26;;;;;;;1.22;0.50;;;;;;;;;;1850973;75;26371;-52
2022/11/12 05:16:53;;;;;;;0.53;0.53;;;;;;;;;;1873467;75;26310;-55
2022/11/12 05:19:20;;;;;;;0.57;0.57;;;;;;;;;;1858084;75;26339;-55
2022/11/12 05:22:06;;;;;;;0.30;0.30;;;;;;;;;;1870024;75;26734;-53
2022/11/12 05:24:38;;;;;;;0.50;0.50;;;;;;;;;;1872348;75;26282;-50
2022/11/12 05:27:07;;;;;;;0.47;0.47;;;;;;;;;;1865062;75;26325;-52
2022/11/12 05:29:34;;;;;;;0.37;0.37;;;;;;;;;;1880032;76;26281;-51
2022/11/12 05:32:01;;;;;;;0.57;0.40;;;;;;;;;;1876170;75;26778;-51
2022/11/12 05:34:29;;;;;;;0.40;0.40;;;;;;;;;;1851497;75;26504;-50
2022/11/12 05:36:56;;;;;;;0.45;0.45;;;;;;;;;;1867134;75;26266;-53
2022/11/12 05:39:23;;;;;;;0.60;0.60;;;;;;;;;;1866662;76;26349;-51
2022/11/12 05:41:51;;;;;;;0.53;0.53;;;;;;;;;;1865812;75;27142;-52
2022/11/12 05:44:18;;;;;;;0.40;0.40;;;;;;;;;;1891624;75;26356;-49
2022/11/12 05:46:46;;;;;;;1.05;0.60;;;;;;;;;;1864847;75;26339;-51
2022/11/12 05:49:13;;;;;;;0.40;0.40;;;;;;;;;;1872684;75;26790;-53
2022/11/12 05:51:40;;;;;;;0.30;0.30;;;;;;;;;;1881202;75;26259;-54
2022/11/12 05:54:08;;;;;;;0.50;0.50;;;;;;;;;;1882311;74;26240;-54
2022/11/12 05:56:36;;;;;;;0.53;0.53;;;;;;;;;;1875146;75;26333;-51
2022/11/12 05:59:05;;;;;;;0.50;0.50;;;;;;;;;;1862329;75;27018;-52
2022/11/12 06:01:33;;;;;;;0.72;0.53;;;;;;;;;;1868908;75;26856;-58
2022/11/12 06:04:00;;;;;;;0.53;0.40;;;;;;;;;;1847538;75;26755;-52
2022/11/12 06:06:28;;;;;;;0.47;0.47;;;;;;;;;;1872440;75;26419;-52
2022/11/12 06:08:55;;;;;;;0.60;0.60;;;;;;;;;;1885071;75;26276;-61
2022/11/12 06:11:23;;;;;;;0.53;0.53;;;;;;;;;;1869446;75;27341;-57
2022/11/12 06:13:50;;;;;;;0.40;0.40;;;;;;;;;;1874284;75;26798;-51
2022/11/12 06:16:17;;;;;;;0.53;0.50;;;;;;;;;;1868102;75;26836;-53
2022/11/12 06:18:45;;;;;;;0.30;0.30;;;;;;;;;;1875902;76;27252;-49
2022/11/12 06:21:26;;;;;;;0.50;0.50;;;;;;;;;;1880762;76;26333;-51
2022/11/12 06:23:54;;;;;;;0.50;0.50;;;;;;;;;;1880425;75;26689;-49
2022/11/12 06:26:22;;;;;;;0.50;0.50;;;;;;;;;;1880601;76;26719;-52
2022/11/12 06:28:50;;;;;;;0.55;0.55;;;;;;;;;;1868361;75;26293;-52
2022/11/12 06:31:17;;;;;;;0.65;0.65;;;;;;;;;;1867239;76;26291;-55
2022/11/12 06:33:45;;;;;;;0.40;0.40;;;;;;;;;;1880884;75;26302;-50
2022/11/12 06:36:14;;;;;;;0.40;0.40;;;;;;;;;;1861434;75;26751;-53
2022/11/12 06:38:42;;;;;;;0.40;0.40;;;;;;;;;;1863815;75;26595;-50
2022/11/12 06:41:10;;;;;;;0.40;0.40;;;;;;;;;;1871878;75;27430;-53
2022/11/12 06:43:38;;;;;;;0.50;0.50;;;;;;;;;;1862194;75;26404;-52
2022/11/12 06:46:10;;;;;;;0.40;0.40;;;;;;;;;;1869423;75;27449;-52
2022/11/12 06:48:37;;;;;;;0.53;0.35;;;;;;;;;;1880549;75;26812;-58
2022/11/12 06:51:09;;;;;;;0.47;0.47;;;;;;;;;;1892016;75;26270;-53
2022/11/12 06:53:36;;;;;;;0.40;0.40;;;;;;;;;;1859816;75;27049;-53
2022/11/12 06:56:05;;;;;;;0.60;0.60;;;;;;;;;;1879752;75;26288;-53
2022/11/12 06:58:32;;;;;;;0.40;0.40;;;;;;;;;;1878372;75;26786;-56
2022/11/12 07:01:01;;;;;;;0.40;0.40;;;;;;;;;;1867485;75;26993;-48
2022/11/12 07:03:28;;;;;;;3.87;0.50;;;;;;;;;;1878588;75;26445;-48
2022/11/12 07:05:55;;;;;;;0.40;0.40;;;;;;;;;;1879378;76;26290;-52
2022/11/12 07:08:23;;;;;;;0.40;0.40;;;;;;;;;;1877016;75;26333;-53
2022/11/12 07:10:51;;;;;;;0.50;0.50;;;;;;;;;;1876232;75;26340;-55
2022/11/12 07:13:19;;;;;;;0.50;0.50;;;;;;;;;;1872970;75;26267;-55
2022/11/12 07:15:46;;;;;;;0.85;0.70;;;;;;;;;;1875071;75;26283;-52
2022/11/12 07:18:13;;;;;;;0.53;0.53;;;;;;;;;;1873221;76;26655;-55
2022/11/12 07:20:40;;;;;;;0.62;0.62;;;;;;;;;;1865998;75;26274;-52
2022/11/12 07:23:08;;;;;;;1.47;0.60;;;;;;;;;;1870330;75;26269;-51
2022/11/12 07:25:35;;;;;;;0.50;0.50;;;;;;;;;;1879016;75;26640;-55
2022/11/12 07:28:02;;;;;;;0.50;0.50;;;;;;;;;;1859858;75;26318;-52
2022/11/12 07:30:30;;;;;;;0.60;0.60;;;;;;;;;;1873047;75;26639;-54
2022/11/12 07:32:57;;;;;;;0.53;0.53;;;;;;;;;;1876679;75;27462;-54
2022/11/12 07:35:24;;;;;;;0.75;0.75;;;;;;;;;;1879288;76;26238;-50
2022/11/12 07:37:52;;;;;;;0.60;0.60;;;;;;;;;;1878261;75;26247;-52
2022/11/12 07:40:20;;;;;;;0.65;0.65;;;;;;;;;;1877875;75;26302;-52
2022/11/12 07:42:48;;;;;;;0.82;0.60;;;;;;;;;;1871321;75;26619;-55
2022/11/12 07:45:15;;;;;;;2.22;0.80;;;;;;;;;;1867866;75;26278;-53
2022/11/12 07:47:42;;;;;;;0.57;0.57;;;;;;;;;;1879350;75;26321;-54
2022/11/12 07:50:10;;;;;;;0.82;0.60;;;;;;;;;;1870839;75;26250;-51
2022/11/12 07:52:37;;;;;;;0.70;0.70;;;;;;;;;;1878805;75;26324;-50
2022/11/12 07:55:05;;;;;;;0.60;0.60;;;;;;;;;;1877651;75;26267;-54
2022/11/12 07:57:33;;;;;;;1.57;0.55;;;;;;;;;;1878880;75;26571;-53
2022/11/12 08:00:00;;;;;;;0.60;0.60;;;;;;;;;;1879428;75;26267;-52
2022/11/12 08:02:27;;;;;;;0.62;0.62;;;;;;;;;;1874337;75;26259;-53
2022/11/12 08:04:55;;;;;;;1.10;0.65;;;;;;;;;;1878482;75;26291;-50
2022/11/12 08:07:22;;;;;;;0.60;0.60;;;;;;;;;;1876659;75;26251;-59
2022/11/12 08:09:49;;;;;;;0.82;0.70;;;;;;;;;;1867816;75;26343;-51
2022/11/12 08:12:17;;;;;;;2.47;0.53;;;;;;;;;;1869303;75;26263;-51
2022/11/12 08:14:44;;;;;;;0.88;0.70;;;;;;;;;;1861865;75;26230;-52
2022/11/12 08:17:11;;;;;;;1.25;0.70;;;;;;;;;;1863198;75;26255;-55
2022/11/12 08:19:39;;;;;;;2.08;0.57;;;;;;;;;;1875434;75;26290;-52
2022/11/12 08:22:06;;;;;;;1.72;0.60;;;;;;;;;;1867134;75;26677;-54
2022/11/12 08:24:33;;;;;;;0.55;0.55;;;;;;;;;;1864107;75;26311;-55
2022/11/12 08:27:00;;;;;;;1.30;0.70;;;;;;;;;;1855787;75;26275;-57
2022/11/12 08:29:28;;;;;;;0.60;0.60;;;;;;;;;;1873955;75;26370;-53
2022/11/12 08:31:55;;;;;;;0.80;0.65;;;;;;;;;;1877966;75;26267;-53
2022/11/12 08:34:22;;;;;;;1.67;0.82;;;;;;;;;;1876561;75;26309;-55
2022/11/12 08:36:49;;;;;;;8.43;0.88;;;;;;;;;;1875959;75;26322;-52
2022/11/12 08:39:17;;;;;;;1.65;0.90;;;;;;;;;;1866007;75;26283;-51
2022/11/12 08:41:44;;;;;;;1.75;0.55;;;;;;;;;;1876892;75;26255;-51
2022/11/12 08:44:11;;;;;;;2.15;0.70;;;;;;;;;;1869278;75;27274;-48
2022/11/12 08:46:38;;;;;;;1.80;0.78;;;;;;;;;;1881240;75;27077;-47
2022/11/12 08:49:06;;;;;;;1.80;0.90;;;;;;;;;;1865007;75;26262;-50
2022/11/12 08:51:33;;;;;;;1.57;0.98;;;;;;;;;;1873706;75;26321;-47
2022/11/12 08:54:01;;;;;;;2.62;0.70;;;;;;;;;;1877051;75;26302;-56
2022/11/12 08:56:28;;;;;;;2.65;0.80;;;;;;;;;;1873259;75;26235;-49
2022/11/12 08:58:55;;;;;;;1.07;0.80;;;;;;;;;;1870785;75;26264;-51
2022/11/12 09:01:23;;;;;;;2.37;0.82;;;;;;;;;;1875180;75;26325;-52
2022/11/12 09:03:50;;;;;;;1.17;0.95;;;;;;;;;;1874380;75;26345;-51
2022/11/12 09:06:17;;;;;;;0.60;0.60;;;;;;;;;;1881881;75;26325;-55
2022/11/12 09:08:45;;;;;;;0.95;0.80;;;;;;;;;;1882465;76;26723;-52
2022/11/12 09:11:12;;;;;;;1.05;0.93;;;;;;;;;;1877226;75;26845;-48
2022/11/12 09:13:39;;;;;;;1.20;0.70;;;;;;;;;;1880605;75;26814;-52
2022/11/12 09:16:08;;;;;;;0.80;0.68;;;;;;;;;;1880786;75;26795;-49
2022/11/12 09:18:36;;;;;;;0.70;0.62;;;;;;;;;;1877660;75;26322;-49
2022/11/12 09:21:04;;;;;;;1.32;0.80;;;;;;;;;;1873093;75;26257;-55
2022/11/12 09:23:33;;;;;;;0.82;0.82;;;;;;;;;;1886176;75;26255;-53
2022/11/12 09:26:00;;;;;;;1.02;0.70;;;;;;;;;;1881403;75;26283;-52
2022/11/12 09:28:28;;;;;;;0.60;0.60;;;;;;;;;;1872489;75;26712;-54
2022/11/12 09:30:55;;;;;;;0.70;0.70;;;;;;;;;;1881068;75;26318;-50
2022/11/12 09:33:27;;;;;;;0.60;0.60;;;;;;;;;;1880397;75;26251;-48
2022/11/12 09:35:54;;;;;;;0.70;0.70;;;;;;;;;;1884410;75;26252;-51
2022/11/12 09:38:22;;;;;;;0.68;0.68;;;;;;;;;;1868134;76;26769;-50
2022/11/12 09:40:54;;;;;;;1.12;0.85;;;;;;;;;;1866327;75;27562;-53
2022/11/12 09:43:22;;;;;;;0.88;0.50;;;;;;;;;;1864572;75;26275;-49
2022/11/12 09:45:51;;;;;;;0.60;0.60;;;;;;;;;;1879645;75;26277;-50
2022/11/12 09:48:23;;;;;;;0.65;0.53;;;;;;;;;;1851733;76;26254;-48
2022/11/12 09:50:54;;;;;;;0.55;0.55;;;;;;;;;;1876740;75;26704;-51
2022/11/12 09:53:23;;;;;;;0.65;0.60;;;;;;;;;;1862413;76;26355;-46
2022/11/12 09:55:50;;;;;;;0.75;0.75;;;;;;;;;;1837090;75;26716;-47
2022/11/12 09:58:19;;;;;;;0.75;0.60;;;;;;;;;;1850000;75;26296;-46
2022/11/12 10:00:53;;;;;;;1.37;0.80;;;;;;;;;;1847843;76;26329;-47
2022/11/12 10:03:39;;;;;;;1.70;0.50;;;;;;;;;;1827424;77;26322;-47
2022/11/12 10:06:07;;;;;;;0.70;0.70;;;;;;;;;;1840282;76;26248;-49
2022/11/12 10:08:36;;;;;;;0.62;0.62;;;;;;;;;;1819134;76;26856;-48
2022/11/12 10:11:11;;;;;;;1.32;0.55;;;;;;;;;;1838793;76;26718;-51
2022/11/12 10:13:43;;;;;;;0.50;0.50;;;;;;;;;;1845774;76;26736;-53
2022/11/12 10:19:11;;;;;;;0.60;0.60;;;;;;;;;;1839924;76;26238;-52
2022/11/12 10:21:39;;;;;;;0.85;0.80;;;;;;;;;;1839741;76;26693;-48
2022/11/12 10:24:08;;;;;;;0.45;0.45;;;;;;;;;;1847057;76;26261;-53
2022/11/12 10:26:36;;;;;;;0.65;0.65;;;;;;;;;;1843934;76;26276;-58
2022/11/12 10:29:08;;;;;;;0.57;0.57;;;;;;;;;;1844821;76;26279;-52
2022/11/12 10:31:36;;;;;;;0.55;0.55;;;;;;;;;;1840409;76;27568;-55
2022/11/12 10:34:10;;;;;;;1.45;0.85;;;;;;;;;;1839433;77;26321;-51
2022/11/12 10:36:38;;;;;;;0.57;0.57;;;;;;;;;;1843544;77;26264;-45
2022/11/12 10:39:05;;;;;;;0.50;0.50;;;;;;;;;;1846142;76;26318;-52
2022/11/12 10:41:33;;;;;;;0.42;0.42;;;;;;;;;;1842366;76;26300;-50
2022/11/12 10:44:01;;;;;;;1.02;0.95;;;;;;;;;;1845889;76;26554;-54
2022/11/12 10:46:33;;;;;;;0.40;0.40;;;;;;;;;;1840699;76;26786;-49
2022/11/12 10:49:02;;;;;;;0.60;0.60;;;;;;;;;;1838904;76;26264;-49
2022/11/12 10:51:31;;;;;;;0.62;0.62;;;;;;;;;;1844959;76;26365;-53
2022/11/12 10:53:58;;;;;;;0.70;0.70;;;;;;;;;;1833980;76;26357;-51
2022/11/12 10:56:27;;;;;;;0.65;0.65;;;;;;;;;;1839172;76;26279;-50
2022/11/12 10:59:14;;;;;;;0.55;0.55;;;;;;;;;;1892212;74;26373;-51
2022/11/12 11:01:42;;;;;;;0.40;0.40;;;;;;;;;;1883887;74;26262;-52
2022/11/12 11:04:17;;;;;;;1.37;0.60;;;;;;;;;;1884071;74;26263;-54
2022/11/12 11:06:44;;;;;;;0.72;0.60;;;;;;;;;;1894488;74;26358;-58
2022/11/12 11:09:13;;;;;;;1.00;0.65;;;;;;;;;;1894367;74;26274;-50
2022/11/12 11:11:52;;;;;;;1.00;0.70;;;;;;;;;;1886390;74;26272;-52
2022/11/12 11:14:21;;;;;;;0.60;0.60;;;;;;;;;;1888524;74;26824;-50
2022/11/12 11:16:52;;;;;;;2.33;0.70;;;;;;;;;;1889140;74;27539;-56
2022/11/12 11:19:19;;;;;;;2.50;0.60;;;;;;;;;;1879077;74;27107;-52
2022/11/12 11:21:51;;;;;;;3.02;0.60;;;;;;;;;;1880408;74;26320;-52
2022/11/12 11:24:23;;;;;;;0.50;0.50;;;;;;;;;;1882905;74;26711;-47
2022/11/12 11:26:51;;;;;;;0.50;0.50;;;;;;;;;;1877846;74;26316;-49
2022/11/12 11:29:20;;;;;;;1.37;0.50;;;;;;;;;;1880426;74;26565;-51
2022/11/12 11:31:49;;;;;;;1.00;0.50;;;;;;;;;;1876619;74;26364;-49
2022/11/12 11:34:36;;;;;;;0.65;0.65;;;;;;;;;;1890727;75;26289;-46
2022/11/12 11:37:21;;;;;;;0.60;0.60;;;;;;;;;;1870414;74;26261;-51
2022/11/12 11:39:50;;;;;;;0.50;0.50;;;;;;;;;;1872442;74;26300;-47
2022/11/12 11:42:25;;;;;;;0.78;0.47;;;;;;;;;;1867574;74;26251;-56
2022/11/12 11:44:56;;;;;;;1.55;0.62;;;;;;;;;;1880034;74;26837;-55
2022/11/12 11:47:25;;;;;;;2.25;0.68;;;;;;;;;;1879405;75;26270;-50
2022/11/12 11:49:54;;;;;;;1.10;0.80;;;;;;;;;;1877593;75;26271;-51
2022/11/12 11:52:39;;;;;;;1.12;0.57;;;;;;;;;;1890625;75;26391;-52
2022/11/12 11:55:25;;;;;;;0.70;0.70;;;;;;;;;;1868685;75;26328;-55
2022/11/12 11:57:54;;;;;;;1.27;0.57;;;;;;;;;;1871774;74;26353;-56
2022/11/12 12:00:22;;;;;;;0.93;0.60;;;;;;;;;;1855199;76;26278;-49
2022/11/12 12:02:51;;;;;;;1.07;0.70;;;;;;;;;;1874524;75;26301;-51
2022/11/12 12:05:23;;;;;;;1.72;0.60;;;;;;;;;;1831242;76;26320;-47
2022/11/12 12:08:03;;;;;;;0.55;0.55;;;;;;;;;;1869582;75;26266;-47
2022/11/12 12:10:32;;;;;;;0.75;0.60;;;;;;;;;;1856942;75;26266;-52
2022/11/12 12:13:07;;;;;;;0.60;0.60;;;;;;;;;;1860003;76;26450;-51
2022/11/12 12:15:36;;;;;;;0.60;0.60;;;;;;;;;;1861232;75;26271;-55
2022/11/12 12:18:07;;;;;;;0.60;0.60;;;;;;;;;;1866915;75;26234;-56
2022/11/12 12:20:48;;;;;;;0.75;0.57;;;;;;;;;;1865451;76;26271;-49
2022/11/12 12:23:23;;;;;;;1.22;0.60;;;;;;;;;;1854423;75;26274;-48
2022/11/12 12:25:52;;;;;;;0.65;0.65;;;;;;;;;;1869157;75;26270;-51
2022/11/12 12:28:24;;;;;;;0.60;0.60;;;;;;;;;;1859516;75;26282;-56
2022/11/12 12:30:52;;;;;;;0.90;0.50;;;;;;;;;;1859522;75;26747;-58
2022/11/12 12:33:36;;;;;;;0.60;0.60;;;;;;;;;;1862455;76;26333;-53
2022/11/12 12:36:05;;;;;;;0.78;0.55;;;;;;;;;;1856732;76;26318;-50
2022/11/12 12:38:33;;;;;;;0.70;0.70;;;;;;;;;;1868704;76;26321;-55
2022/11/12 12:41:19;;;;;;;1.30;0.55;;;;;;;;;;1860896;75;26333;-51
2022/11/12 12:43:48;;;;;;;0.35;0.35;;;;;;;;;;1869983;76;26256;-57
2022/11/12 12:46:16;;;;;;;1.10;0.68;;;;;;;;;;1863777;75;26259;-56
2022/11/12 12:48:45;;;;;;;0.55;0.55;;;;;;;;;;1854993;75;26278;-54
2022/11/12 12:51:12;;;;;;;0.72;0.60;;;;;;;;;;1860098;75;26349;-50
2022/11/12 12:53:40;;;;;;;1.35;0.60;;;;;;;;;;1855459;75;26231;-50
2022/11/12 12:56:08;;;;;;;0.70;0.70;;;;;;;;;;1864069;75;26321;-57
2022/11/12 12:58:43;;;;;;;0.50;0.50;;;;;;;;;;1853253;76;27489;-48
2022/11/12 13:01:21;;;;;;;1.50;0.80;;;;;;;;;;1874866;75;26698;-48
2022/11/12 13:03:50;;;;;;;0.75;0.60;;;;;;;;;;1876850;75;26607;-49
2022/11/12 13:06:26;;;;;;;1.65;0.62;;;;;;;;;;1874054;75;26820;-51
2022/11/12 13:09:01;;;;;;;1.30;1.00;;;;;;;;;;1864488;75;26771;-48
2022/11/12 13:14:38;;;;;;;0.57;0.57;;;;;;;;;;1862636;76;26318;-51
2022/11/12 13:17:14;;;;;;;3.00;0.72;;;;;;;;;;1869123;75;26286;-50
2022/11/12 13:19:55;;;;;;;0.95;0.72;;;;;;;;;;1861063;75;26607;-60
2022/11/12 13:22:24;;;;;;;1.75;0.72;;;;;;;;;;1860670;76;26341;-58
2022/11/12 13:25:12;;;;;;;1.77;0.70;;;;;;;;;;1857227;75;26318;-54
2022/11/12 13:27:41;;;;;;;1.15;1.00;;;;;;;;;;1856866;76;26739;-50
2022/11/12 13:30:10;;;;;;;0.50;0.50;;;;;;;;;;1858526;76;26352;-50
2022/11/12 13:32:42;;;;;;;1.95;0.80;;;;;;;;;;1866345;75;26249;-47
2022/11/12 13:35:20;;;;;;;0.75;0.75;;;;;;;;;;1870330;75;26290;-51
2022/11/12 13:37:49;;;;;;;0.88;0.65;;;;;;;;;;1866385;75;26349;-50
2022/11/12 13:40:17;;;;;;;1.35;0.80;;;;;;;;;;1876680;75;26311;-51
2022/11/12 13:42:48;;;;;;;1.32;0.70;;;;;;;;;;1862275;75;26329;-55
2022/11/12 13:45:16;;;;;;;1.92;0.70;;;;;;;;;;1879339;75;27461;-51
2022/11/12 13:47:44;;;;;;;1.80;0.98;;;;;;;;;;1879938;76;26259;-54
2022/11/12 13:50:15;;;;;;;1.07;0.80;;;;;;;;;;1869009;75;26733;-52
2022/11/12 13:52:43;;;;;;;4.72;0.82;;;;;;;;;;1870874;75;26305;-49
2022/11/12 13:55:14;;;;;;;2.00;0.80;;;;;;;;;;1879726;75;26200;-55
2022/11/12 13:57:43;;;;;;;1.98;0.90;;;;;;;;;;1873878;75;26287;-55
2022/11/12 14:00:19;;;;;;;2.98;1.10;;;;;;;;;;1878480;75;26289;-56
2022/11/12 14:02:54;;;;;;;1.80;0.70;;;;;;;;;;1877913;75;26369;-58
2022/11/12 14:05:23;;;;;;;1.47;0.80;;;;;;;;;;1879193;75;26295;-56
2022/11/12 14:07:55;;;;;;;4.33;0.80;;;;;;;;;;1864339;75;26248;-52
2022/11/12 14:10:35;;;;;;;3.72;0.93;;;;;;;;;;1872900;75;26828;-51
2022/11/12 14:13:07;;;;;;;1.00;0.85;;;;;;;;;;1858256;75;26255;-54
2022/11/12 14:15:39;;;;;;;1.52;0.70;;;;;;;;;;1868952;75;26267;-52
2022/11/12 14:18:11;;;;;;;3.05;0.75;;;;;;;;;;1867044;75;26262;-57
2022/11/12 14:20:39;;;;;;;1.15;0.70;;;;;;;;;;1867355;75;26207;-57
2022/11/12 14:23:14;;;;;;;2.47;0.93;;;;;;;;;;1879011;75;27017;-53
2022/11/12 14:25:49;;;;;;;0.60;0.60;;;;;;;;;;1875191;75;26353;-56
2022/11/12 14:28:33;;;;;;;1.32;0.85;;;;;;;;;;1879737;75;26332;-55
2022/11/12 14:31:01;;;;;;;3.65;0.82;;;;;;;;;;1860543;75;26212;-57
2022/11/12 14:33:30;;;;;;;0.95;0.82;;;;;;;;;;1880615;75;26783;-52
2022/11/12 14:36:05;;;;;;;1.27;0.80;;;;;;;;;;1877673;75;26342;-48
2022/11/12 14:38:46;;;;;;;1.82;0.90;;;;;;;;;;1863604;76;27354;-52
2022/11/12 14:41:18;;;;;;;0.80;0.80;;;;;;;;;;1875211;75;26756;-50
2022/11/12 14:43:46;;;;;;;2.02;0.88;;;;;;;;;;1879329;76;26289;-52
2022/11/12 14:46:24;;;;;;;0.75;0.75;;;;;;;;;;1873655;75;26248;-56
2022/11/12 14:48:59;;;;;;;2.25;0.80;;;;;;;;;;1870190;75;26274;-48
2022/11/12 14:51:28;;;;;;;1.77;0.90;;;;;;;;;;1862019;75;26309;-48
2022/11/12 14:53:57;;;;;;;3.00;0.90;;;;;;;;;;1856446;76;26274;-51
2022/11/12 14:56:35;;;;;;;0.98;0.78;;;;;;;;;;1862393;75;26259;-55
2022/11/12 14:59:03;;;;;;;2.40;0.80;;;;;;;;;;1860360;76;26361;-54
2022/11/12 15:01:32;;;;;;;1.37;0.90;;;;;;;;;;1857281;75;26728;-53
2022/11/12 15:04:13;;;;;;;0.60;0.60;;;;;;;;;;1862890;75;26270;-55
2022/11/12 15:06:40;;;;;;;1.92;0.70;;;;;;;;;;1860434;76;27392;-55
2022/11/12 15:09:08;;;;;;;0.80;0.80;;;;;;;;;;1864712;75;26584;-53
2022/11/12 15:11:36;;;;;;;1.32;0.80;;;;;;;;;;1850013;76;26294;-53
2022/11/12 15:14:04;;;;;;;0.70;0.70;;;;;;;;;;1870940;75;26205;-56
2022/11/12 15:16:35;;;;;;;0.80;0.70;;;;;;;;;;1878328;75;26326;-54
2022/11/12 15:19:16;;;;;;;0.55;0.55;;;;;;;;;;1880045;75;26321;-50
2022/11/12 15:21:57;;;;;;;0.70;0.70;;;;;;;;;;1863002;75;26834;-52
2022/11/12 15:24:25;;;;;;;0.60;0.60;;;;;;;;;;1868647;75;26243;-54
2022/11/12 15:26:54;;;;;;;0.70;0.70;;;;;;;;;;1864182;75;26357;-51